createdAt,value
2023-09-26T00:01:56.153Z,4.53
2023-09-26T00:04:22.859Z,4.48
2023-09-26T00:06:49.578Z,4.58
2023-09-26T00:09:16.200Z,5.40
2023-09-26T00:11:42.756Z,5.62
2023-09-26T00:14:09.368Z,5.65
2023-09-26T00:16:36.112Z,5.56
2023-09-26T00:19:02.799Z,5.00
2023-09-26T00:21:29.426Z,4.86
2023-09-26T00:23:56.104Z,4.72
2023-09-26T00:26:22.709Z,4.45
2023-09-26T00:28:49.271Z,4.67
2023-09-26T00:31:15.938Z,4.78
2023-09-26T00:33:42.611Z,4.70
2023-09-26T00:36:10.268Z,4.76
2023-09-26T00:38:37.251Z,4.72
2023-09-26T00:41:04.105Z,4.72
2023-09-26T00:43:31.858Z,4.88
2023-09-26T00:46:01.364Z,4.88
2023-09-26T00:48:28.673Z,4.99
2023-09-26T00:50:56.691Z,5.13
2023-09-26T00:53:26.026Z,5.00
2023-09-26T00:55:55.624Z,4.97
2023-09-26T00:58:26.676Z,5.10
2023-09-26T01:00:54.053Z,4.88
2023-09-26T01:03:21.976Z,4.66
2023-09-26T01:08:30.963Z,4.99
2023-09-26T01:11:00.576Z,5.28
2023-09-26T01:13:27.223Z,5.37
2023-09-26T01:15:53.896Z,5.12
2023-09-26T01:18:20.773Z,4.79
2023-09-26T01:20:47.500Z,4.87
2023-09-26T01:23:16.228Z,4.71
2023-09-26T01:25:44.112Z,4.89
2023-09-26T01:28:14.846Z,5.08
2023-09-26T01:30:41.666Z,4.98
2023-09-26T01:33:09.840Z,5.08
2023-09-26T01:35:36.539Z,5.16
2023-09-26T01:38:03.210Z,5.13
2023-09-26T01:40:29.797Z,5.20
2023-09-26T01:42:56.549Z,5.13
2023-09-26T01:45:23.231Z,4.86
2023-09-26T01:47:51.625Z,4.93
2023-09-26T01:50:20.201Z,4.86
2023-09-26T01:52:47.628Z,5.21
2023-09-26T01:55:18.482Z,5.38
2023-09-26T01:57:45.725Z,5.06
2023-09-26T02:00:13.466Z,5.12
2023-09-26T02:02:46.004Z,5.01
2023-09-26T02:05:21.345Z,4.94
2023-09-26T02:07:48.985Z,4.84
2023-09-26T02:10:16.918Z,4.82
2023-09-26T02:12:46.892Z,5.15
2023-09-26T02:15:14.187Z,5.09
2023-09-26T02:17:42.010Z,5.18
2023-09-26T02:20:15.162Z,5.01
2023-09-26T02:22:50.328Z,4.80
2023-09-26T02:25:18.136Z,4.77
2023-09-26T02:27:44.848Z,5.06
2023-09-26T02:30:14.069Z,4.99
2023-09-26T02:32:40.955Z,5.12
2023-09-26T02:35:09.784Z,5.31
2023-09-26T02:37:36.988Z,5.46
2023-09-26T02:40:04.557Z,5.20
2023-09-26T02:42:31.090Z,4.96
2023-09-26T02:44:57.637Z,5.01
2023-09-26T02:47:24.167Z,4.92
2023-09-26T02:49:50.702Z,4.92
2023-09-26T02:52:17.342Z,4.95
2023-09-26T02:54:43.949Z,5.14
2023-09-26T02:57:10.556Z,5.23
2023-09-26T02:59:37.238Z,5.18
2023-09-26T03:02:03.943Z,5.19
2023-09-26T03:04:30.638Z,4.80
2023-09-26T03:06:57.313Z,5.34
2023-09-26T03:09:23.984Z,5.28
2023-09-26T03:11:50.548Z,5.15
2023-09-26T03:14:19.431Z,5.26
2023-09-26T03:16:46.386Z,5.06
2023-09-26T03:19:13.315Z,5.08
2023-09-26T03:21:39.965Z,5.02
2023-09-26T03:24:07.014Z,5.39
2023-09-26T03:26:33.576Z,5.29
2023-09-26T03:29:00.205Z,5.24
2023-09-26T03:31:27.005Z,5.12
2023-09-26T03:33:53.789Z,5.54
2023-09-26T03:36:21.695Z,5.47
2023-09-26T03:38:48.321Z,5.27
2023-09-26T03:41:14.962Z,5.06
2023-09-26T03:43:41.509Z,5.03
2023-09-26T03:46:09.580Z,4.92
2023-09-26T03:48:36.810Z,4.88
2023-09-26T03:51:14.488Z,5.44
2023-09-26T03:53:42.574Z,5.09
2023-09-26T03:56:09.610Z,5.33
2023-09-26T03:58:37.233Z,5.50
2023-09-26T04:01:12.499Z,5.46
2023-09-26T04:03:40.878Z,5.45
2023-09-26T04:06:07.737Z,4.90
2023-09-26T04:08:34.476Z,5.20
2023-09-26T04:11:01.128Z,5.04
2023-09-26T04:13:27.968Z,5.33
2023-09-26T04:15:56.270Z,5.28
2023-09-26T04:18:24.096Z,5.32
2023-09-26T04:20:51.424Z,5.49
2023-09-26T04:23:18.072Z,5.15
2023-09-26T04:25:45.156Z,5.28
2023-09-26T04:28:11.902Z,5.19
2023-09-26T04:30:40.137Z,5.44
2023-09-26T04:33:08.517Z,5.32
2023-09-26T04:35:36.244Z,5.50
2023-09-26T04:38:04.589Z,5.18
2023-09-26T04:40:31.708Z,4.99
2023-09-26T04:43:03.746Z,5.47
2023-09-26T04:45:31.843Z,5.38
2023-09-26T04:47:59.725Z,5.36
2023-09-26T04:50:27.718Z,5.32
2023-09-26T04:52:54.401Z,5.23
2023-09-26T04:55:20.980Z,5.06
2023-09-26T04:57:47.754Z,5.39
2023-09-26T05:00:14.775Z,5.40
2023-09-26T05:02:41.391Z,5.59
2023-09-26T05:05:08.320Z,5.61
2023-09-26T05:07:34.988Z,5.52
2023-09-26T05:10:01.838Z,5.50
2023-09-26T05:12:29.719Z,5.64
2023-09-26T05:14:56.889Z,5.99
2023-09-26T05:17:23.906Z,5.71
2023-09-26T05:19:50.591Z,5.78
2023-09-26T05:22:17.315Z,6.69
2023-09-26T05:24:44.148Z,6.11
2023-09-26T05:27:10.764Z,5.81
2023-09-26T05:29:37.383Z,6.00
2023-09-26T05:32:04.167Z,5.79
2023-09-26T05:34:30.839Z,5.49
2023-09-26T05:36:57.512Z,5.86
2023-09-26T05:39:24.273Z,6.14
2023-09-26T05:41:50.893Z,5.97
2023-09-26T06:24:18.854Z,6.41
2023-09-26T06:26:45.415Z,6.61
2023-09-26T06:29:12.032Z,6.35
2023-09-26T06:31:40.083Z,6.99
2023-09-26T06:34:06.720Z,6.45
2023-09-26T06:36:33.491Z,6.42
2023-09-26T06:39:00.323Z,6.35
2023-09-26T06:41:26.989Z,6.20
2023-09-26T06:43:53.691Z,6.30
2023-09-26T06:46:20.542Z,6.82
2023-09-26T06:48:47.469Z,6.43
2023-09-26T06:51:14.188Z,6.93
2023-09-26T06:53:42.164Z,6.72
2023-09-26T06:56:09.577Z,7.14
2023-09-26T06:58:37.768Z,6.62
2023-09-26T07:01:04.529Z,6.54
2023-09-26T07:03:31.177Z,6.39
2023-09-26T07:05:57.882Z,6.53
2023-09-26T07:08:24.711Z,8.30
2023-09-26T07:10:51.790Z,9.44
2023-09-26T07:13:44.239Z,7.38
2023-09-26T07:16:06.708Z,6.48
2023-09-26T07:18:35.007Z,6.48
2023-09-26T07:21:02.029Z,6.32
2023-09-26T07:23:28.567Z,6.66
2023-09-26T07:26:16.133Z,7.51
2023-09-26T07:28:44.595Z,6.44
2023-09-26T07:31:16.974Z,6.01
2023-09-26T07:33:45.987Z,6.33
2023-09-26T07:36:12.831Z,6.65
2023-09-26T07:38:39.404Z,6.40
2023-09-26T07:41:06.018Z,6.29
2023-09-26T07:43:32.955Z,6.35
2023-09-26T07:46:07.066Z,6.91
2023-09-26T07:48:34.540Z,6.17
2023-09-26T07:51:02.093Z,6.65
2023-09-26T07:53:28.749Z,6.47
2023-09-26T07:55:58.791Z,8.26
2023-09-26T07:58:26.513Z,6.23
2023-09-26T08:00:57.675Z,8.12
2023-09-26T08:03:24.255Z,6.43
2023-09-26T08:05:50.833Z,6.35
2023-09-26T08:08:17.406Z,6.29
2023-09-26T08:10:44.192Z,7.33
2023-09-26T08:13:10.919Z,6.87
2023-09-26T08:15:37.521Z,5.94
2023-09-26T08:18:04.635Z,6.11
2023-09-26T08:20:31.614Z,6.52
2023-09-26T08:22:58.408Z,6.30
2023-09-26T08:25:27.135Z,5.98
2023-09-26T08:27:53.955Z,6.44
2023-09-26T08:30:20.973Z,6.49
2023-09-26T08:32:49.511Z,6.52
2023-09-26T08:35:20.779Z,6.15
2023-09-26T08:37:54.614Z,6.20
2023-09-26T08:40:24.569Z,6.37
2023-09-26T08:42:55.000Z,7.20
2023-09-26T08:45:23.079Z,8.12
2023-09-26T08:47:49.869Z,6.11
2023-09-26T08:50:16.595Z,6.68
2023-09-26T08:52:43.330Z,6.43
2023-09-26T08:55:10.442Z,6.21
2023-09-26T08:57:38.267Z,6.24
2023-09-26T09:00:10.209Z,6.64
2023-09-26T09:02:37.171Z,6.72
2023-09-26T09:05:04.041Z,7.53
2023-09-26T09:07:31.046Z,7.11
2023-09-26T09:10:06.660Z,6.67
2023-09-26T09:12:34.345Z,6.81
2023-09-26T09:15:01.081Z,6.83
2023-09-26T09:17:39.826Z,6.30
2023-09-26T09:20:07.024Z,6.48
2023-09-26T09:22:33.615Z,6.54
2023-09-26T09:25:00.272Z,6.71
2023-09-26T09:27:46.295Z,6.55
2023-09-26T09:30:14.319Z,6.54
2023-09-26T09:32:42.468Z,6.75
2023-09-26T09:35:15.552Z,6.53
2023-09-26T09:37:43.822Z,6.41
2023-09-26T09:40:11.109Z,6.50
2023-09-26T09:42:37.869Z,6.57
2023-09-26T09:45:04.871Z,6.48
2023-09-26T09:47:37.664Z,6.30
2023-09-26T09:50:06.441Z,6.33
2023-09-26T09:52:35.093Z,6.50
2023-09-26T09:55:08.203Z,6.49
2023-09-26T09:57:42.729Z,6.61
2023-09-26T10:00:09.615Z,6.67
2023-09-26T10:02:44.917Z,6.28
2023-09-26T10:05:24.386Z,7.10
2023-09-26T10:07:54.112Z,7.58
2023-09-26T10:10:22.925Z,7.54
2023-09-26T10:13:19.539Z,7.24
2023-09-26T10:16:03.390Z,7.18
2023-09-26T10:18:30.336Z,7.08
2023-09-26T10:20:59.157Z,7.39
2023-09-26T10:23:25.836Z,6.91
2023-09-26T10:25:52.400Z,6.63
2023-09-26T10:28:20.526Z,6.89
2023-09-26T10:30:55.618Z,6.68
2023-09-26T10:36:15.593Z,7.08
2023-09-26T10:38:42.688Z,8.01
2023-09-26T10:43:47.172Z,6.79
2023-09-26T10:46:25.987Z,6.73
2023-09-26T10:48:52.832Z,7.15
2023-09-26T10:51:19.588Z,6.92
2023-09-26T10:53:46.161Z,6.85
2023-09-26T10:56:13.619Z,6.61
2023-09-26T10:58:42.713Z,7.00
2023-09-26T11:01:09.621Z,6.94
2023-09-26T11:03:36.281Z,7.21
2023-09-26T11:06:03.995Z,7.67
2023-09-26T11:08:32.197Z,7.22
2023-09-26T11:10:59.012Z,7.26
2023-09-26T11:16:13.082Z,7.07
2023-09-26T11:18:39.883Z,6.76
2023-09-26T11:21:26.278Z,6.71
2023-09-26T11:23:53.037Z,6.98
2023-09-26T11:26:19.598Z,6.90
2023-09-26T11:28:46.267Z,6.45
2023-09-26T11:31:14.138Z,6.60
2023-09-26T11:33:40.849Z,6.64
2023-09-26T11:36:07.828Z,7.39
2023-09-26T11:38:46.346Z,7.16
2023-09-26T11:41:13.487Z,6.92
2023-09-26T11:43:42.182Z,6.52
2023-09-26T11:46:09.159Z,7.08
2023-09-26T11:48:35.979Z,6.23
2023-09-26T11:51:02.628Z,7.44
2023-09-26T11:53:29.329Z,6.82
2023-09-26T11:55:56.006Z,6.62
2023-09-26T11:58:22.715Z,6.49
2023-09-26T12:00:49.444Z,7.06
2023-09-26T12:03:16.317Z,6.87
2023-09-26T12:05:43.330Z,6.81
2023-09-26T12:08:10.083Z,5.73
2023-09-26T12:10:38.428Z,6.00
2023-09-26T12:13:06.509Z,5.88
2023-09-26T12:15:33.611Z,5.67
2023-09-26T12:18:02.077Z,5.79
2023-09-26T12:20:28.918Z,5.89
2023-09-26T12:22:57.466Z,5.78
2023-09-26T12:25:25.677Z,5.62
2023-09-26T12:27:53.268Z,6.12
2023-09-26T12:30:21.330Z,5.79
2023-09-26T12:32:49.419Z,5.90
2023-09-26T12:35:16.196Z,5.71
2023-09-26T12:37:44.711Z,6.20
2023-09-26T12:40:13.298Z,6.22
2023-09-26T12:42:41.119Z,6.14
2023-09-26T12:45:08.851Z,5.89
2023-09-26T12:47:35.766Z,5.68
2023-09-26T12:50:02.504Z,5.72
2023-09-26T12:52:29.446Z,5.42
2023-09-26T12:54:56.242Z,6.05
2023-09-26T12:57:22.985Z,5.42
2023-09-26T12:59:54.371Z,5.66
2023-09-26T13:02:21.958Z,5.46
2023-09-26T13:04:48.853Z,5.12
2023-09-26T13:07:15.524Z,5.20
2023-09-26T13:09:42.230Z,5.22
2023-09-26T13:12:09.037Z,5.28
2023-09-26T13:14:35.799Z,5.30
2023-09-26T13:17:02.923Z,5.62
2023-09-26T13:19:30.405Z,5.54
2023-09-26T13:21:57.109Z,5.72
2023-09-26T13:24:23.908Z,5.46
2023-09-26T13:26:50.653Z,5.40
2023-09-26T13:29:18.512Z,5.65
2023-09-26T13:31:45.442Z,5.25
2023-09-26T13:34:12.163Z,5.34
2023-09-26T13:36:38.940Z,5.21
2023-09-26T13:39:06.254Z,5.28
2023-09-26T13:41:33.012Z,5.46
2023-09-26T13:43:59.742Z,5.75
2023-09-26T13:46:26.644Z,5.47
2023-09-26T13:48:53.446Z,5.75
2023-09-26T13:51:20.225Z,6.22
2023-09-26T13:53:46.859Z,5.40
2023-09-26T13:56:13.545Z,5.19
2023-09-26T13:58:40.409Z,5.03
2023-09-26T14:01:07.229Z,5.02
2023-09-26T14:03:33.983Z,5.08
2023-09-26T14:06:01.826Z,5.11
2023-09-26T14:08:28.600Z,5.16
2023-09-26T14:10:55.307Z,5.19
2023-09-26T14:13:25.404Z,5.15
2023-09-26T14:15:53.115Z,5.34
2023-09-26T14:18:21.326Z,4.99
2023-09-26T14:20:50.955Z,5.12
2023-09-26T14:23:27.429Z,4.73
2023-09-26T14:25:55.395Z,4.80
2023-09-26T14:28:22.162Z,4.38
2023-09-26T14:30:48.909Z,5.04
2023-09-26T14:33:17.409Z,4.45
2023-09-26T14:35:45.075Z,4.04
2023-09-26T14:38:12.059Z,4.21
2023-09-26T14:40:39.236Z,4.13
2023-09-26T14:43:06.437Z,4.04
2023-09-26T14:45:39.613Z,3.83
2023-09-26T14:48:15.399Z,3.90
2023-09-26T14:50:42.245Z,3.98
2023-09-26T14:53:09.021Z,4.08
2023-09-26T14:55:35.791Z,3.94
2023-09-26T14:58:02.517Z,4.00
2023-09-26T15:00:29.108Z,4.21
2023-09-26T15:02:55.935Z,4.17
2023-09-26T15:05:22.700Z,4.29
2023-09-26T15:07:49.475Z,4.44
2023-09-26T15:10:16.164Z,4.35
2023-09-26T15:12:42.810Z,4.38
2023-09-26T15:15:09.804Z,4.39
2023-09-26T15:17:36.519Z,4.09
2023-09-26T15:20:03.321Z,4.25
2023-09-26T15:22:30.159Z,4.39
2023-09-26T15:24:56.904Z,4.55
2023-09-26T15:27:23.625Z,4.66
2023-09-26T15:29:50.374Z,5.19
2023-09-26T15:32:17.155Z,4.84
2023-09-26T15:34:45.536Z,4.18
2023-09-26T15:37:12.228Z,4.26
2023-09-26T15:39:39.152Z,4.43
2023-09-26T15:42:16.989Z,4.72
2023-09-26T15:44:43.954Z,4.94
2023-09-26T15:47:10.736Z,4.41
2023-09-26T15:49:49.279Z,4.55
2023-09-26T15:52:18.104Z,5.33
2023-09-26T15:54:44.971Z,5.45
2023-09-26T15:57:12.144Z,4.49
2023-09-26T15:59:38.991Z,4.11
2023-09-26T16:02:06.518Z,4.16
2023-09-26T16:04:34.987Z,4.26
2023-09-26T16:07:01.945Z,4.27
2023-09-26T16:09:28.556Z,5.35
2023-09-26T16:11:55.297Z,6.73
2023-09-26T16:14:22.105Z,5.26
2023-09-26T16:16:48.940Z,5.21
2023-09-26T16:19:17.103Z,4.66
2023-09-26T16:21:45.305Z,4.43
2023-09-26T16:24:12.120Z,4.55
2023-09-26T16:26:39.190Z,4.70
2023-09-26T16:29:06.301Z,5.21
2023-09-26T16:31:33.744Z,4.89
2023-09-26T16:34:00.755Z,4.70
2023-09-26T16:36:27.702Z,4.96
2023-09-26T16:38:56.083Z,4.84
2023-09-26T16:41:22.719Z,4.78
2023-09-26T16:43:49.593Z,5.51
2023-09-26T16:46:16.371Z,5.14
2023-09-26T16:48:43.329Z,5.31
2023-09-26T16:51:10.223Z,10.06
2023-09-26T16:53:39.914Z,11.38
2023-09-26T16:56:07.282Z,5.36
2023-09-26T16:58:34.440Z,5.14
2023-09-26T17:01:12.936Z,4.91
2023-09-26T17:03:41.975Z,5.35
2023-09-26T17:06:11.391Z,5.04
2023-09-26T17:08:38.747Z,4.90
2023-09-26T17:11:06.985Z,5.19
2023-09-26T17:13:35.662Z,5.93
2023-09-26T17:16:02.713Z,5.75
2023-09-26T17:18:29.870Z,5.88
2023-09-26T17:20:56.671Z,5.79
2023-09-26T17:23:23.383Z,5.51
2023-09-26T17:25:50.448Z,5.50
2023-09-26T17:28:17.787Z,5.51
2023-09-26T17:33:25.947Z,5.56
2023-09-26T17:35:53.267Z,5.99
2023-09-26T17:38:20.247Z,7.36
2023-09-26T17:40:47.078Z,7.38
2023-09-26T17:43:13.774Z,7.04
2023-09-26T17:45:41.143Z,6.53
2023-09-26T17:48:08.267Z,6.02
2023-09-26T17:50:35.174Z,5.54
2023-09-26T17:53:02.007Z,5.21
2023-09-26T17:55:29.013Z,5.39
2023-09-26T17:57:55.778Z,5.61
2023-09-26T18:00:59.908Z,5.57
2023-09-26T18:03:23.483Z,5.91
2023-09-26T18:05:50.873Z,5.76
2023-09-26T18:08:17.720Z,5.44
2023-09-26T18:10:45.534Z,5.69
2023-09-26T18:13:12.488Z,5.97
2023-09-26T18:15:39.254Z,5.95
2023-09-26T18:18:06.272Z,5.97
2023-09-26T18:20:33.479Z,5.75
2023-09-26T18:23:00.481Z,5.44
2023-09-26T18:25:27.550Z,5.78
2023-09-26T18:27:54.528Z,5.81
2023-09-26T18:30:21.276Z,5.53
2023-09-26T18:32:48.362Z,5.64
2023-09-26T18:35:15.431Z,5.63
2023-09-26T18:37:42.430Z,5.46
2023-09-26T18:40:10.415Z,5.50
2023-09-26T18:42:37.258Z,5.92
2023-09-26T18:45:04.824Z,5.79
2023-09-26T18:47:31.928Z,5.76
2023-09-26T18:49:58.727Z,5.91
2023-09-26T18:52:26.664Z,6.52
2023-09-26T18:54:53.527Z,7.19
2023-09-26T18:57:20.268Z,6.64
2023-09-26T18:59:47.021Z,6.12
2023-09-26T19:02:14.042Z,5.18
2023-09-26T19:04:41.160Z,5.53
2023-09-26T19:07:07.919Z,5.79
2023-09-26T19:09:35.276Z,6.36
2023-09-26T19:12:02.103Z,5.98
2023-09-26T19:14:28.882Z,5.89
2023-09-26T19:16:56.221Z,6.02
2023-09-26T19:19:23.238Z,6.21
2023-09-26T19:21:50.496Z,6.10
2023-09-26T19:24:20.374Z,5.95
2023-09-26T19:26:47.422Z,6.00
2023-09-26T19:29:14.288Z,5.80
2023-09-26T19:31:41.272Z,5.62
2023-09-26T19:34:08.376Z,5.90
2023-09-26T19:36:35.351Z,5.84
2023-09-26T19:39:02.641Z,5.92
2023-09-26T19:41:29.752Z,6.78
2023-09-26T19:43:56.722Z,6.28
2023-09-26T19:46:23.795Z,6.03
2023-09-26T19:48:54.395Z,6.02
2023-09-26T19:51:21.420Z,6.13
2023-09-26T19:53:48.333Z,5.89
2023-09-26T19:56:15.278Z,6.33
2023-09-26T19:58:42.326Z,6.28
2023-09-26T20:01:09.252Z,6.34
2023-09-26T20:03:36.529Z,6.03
2023-09-26T20:06:03.578Z,6.19
2023-09-26T20:08:30.499Z,6.85
2023-09-26T20:10:57.497Z,6.66
2023-09-26T20:13:24.259Z,6.62
2023-09-26T20:15:51.128Z,6.82
2023-09-26T20:18:17.814Z,6.53
2023-09-26T20:20:44.906Z,6.57
2023-09-26T20:23:11.848Z,6.77
2023-09-26T20:25:38.572Z,6.41
2023-09-26T20:28:06.412Z,6.25
2023-09-26T20:30:34.432Z,6.42
2023-09-26T20:33:13.329Z,7.22
2023-09-26T20:35:52.931Z,6.59
2023-09-26T20:38:22.337Z,6.20
2023-09-26T20:40:49.328Z,5.93
2023-09-26T20:43:17.958Z,5.83
2023-09-26T20:45:46.096Z,6.31
2023-09-26T20:48:16.053Z,6.18
2023-09-26T20:50:42.856Z,6.55
2023-09-26T20:53:09.743Z,6.36
2023-09-26T20:55:39.691Z,6.14
2023-09-26T20:58:09.467Z,6.36
2023-09-26T21:00:37.186Z,6.13
2023-09-26T21:03:04.736Z,6.38
2023-09-26T21:05:36.520Z,5.88
2023-09-26T21:08:03.459Z,6.46
2023-09-26T21:10:30.506Z,6.18
2023-09-26T21:12:57.629Z,5.84
2023-09-26T21:15:25.390Z,5.58
2023-09-26T21:17:52.658Z,5.54
2023-09-26T21:20:20.345Z,5.50
2023-09-26T21:22:47.309Z,5.72
2023-09-26T21:25:14.246Z,5.68
2023-09-26T21:27:41.635Z,5.63
2023-09-26T21:30:09.325Z,5.94
2023-09-26T21:32:36.499Z,5.74
2023-09-26T21:35:03.703Z,5.94
2023-09-26T21:37:30.454Z,5.82
2023-09-26T21:39:57.574Z,6.26
2023-09-26T21:42:24.337Z,5.26
2023-09-26T21:44:51.331Z,5.43
2023-09-26T21:47:18.237Z,5.84
2023-09-26T21:49:45.130Z,5.58
2023-09-26T21:52:11.941Z,5.49
2023-09-26T21:54:38.670Z,5.74
2023-09-26T21:57:05.597Z,5.88
2023-09-26T21:59:32.545Z,5.48
2023-09-26T22:01:59.508Z,5.94
2023-09-26T22:04:28.755Z,5.60
2023-09-26T22:06:55.634Z,5.76
2023-09-26T22:09:22.440Z,5.60
2023-09-26T22:11:49.368Z,5.70
2023-09-26T22:14:16.239Z,5.87
2023-09-26T22:16:42.918Z,5.47
2023-09-26T22:19:09.761Z,5.52
2023-09-26T22:21:36.786Z,5.47
2023-09-26T22:24:03.904Z,5.83
2023-09-26T22:26:30.711Z,5.75
2023-09-26T22:28:57.502Z,5.73
2023-09-26T22:31:24.423Z,5.68
2023-09-26T22:33:51.888Z,5.61
2023-09-26T22:36:19.905Z,5.44
2023-09-26T22:38:46.830Z,5.69
2023-09-26T22:41:13.613Z,5.60
2023-09-26T22:43:40.423Z,5.73
2023-09-26T22:46:07.103Z,5.52
2023-09-26T22:48:33.940Z,5.45
2023-09-26T22:51:00.859Z,5.67
2023-09-26T22:53:27.680Z,5.59
2023-09-26T22:55:54.444Z,5.27
2023-09-26T22:58:21.305Z,5.24
2023-09-26T23:00:48.246Z,5.54
2023-09-26T23:03:15.330Z,5.15
2023-09-26T23:05:42.138Z,5.31
2023-09-26T23:08:09.121Z,5.46
2023-09-26T23:10:35.994Z,5.66
2023-09-26T23:13:02.943Z,5.27
2023-09-26T23:15:29.791Z,5.41
2023-09-26T23:17:56.746Z,5.07
2023-09-26T23:20:23.523Z,5.08
2023-09-26T23:22:51.772Z,4.93
2023-09-26T23:25:18.787Z,4.81
2023-09-26T23:27:45.526Z,4.96
2023-09-26T23:30:13.567Z,5.10
2023-09-26T23:32:42.528Z,5.21
2023-09-26T23:35:10.123Z,5.10
2023-09-26T23:37:37.058Z,5.20
2023-09-26T23:40:04.049Z,5.09
2023-09-26T23:42:30.739Z,5.32
2023-09-26T23:44:57.447Z,5.26
2023-09-26T23:47:24.228Z,5.30
2023-09-26T23:49:51.066Z,5.01
2023-09-26T23:52:17.845Z,5.13
2023-09-26T23:54:44.605Z,5.16
2023-09-26T23:57:11.330Z,5.04
2023-09-26T23:59:38.085Z,5.09
